Time;durP1;ratioP1;P1;durP2;ratioP2;P2;SDS_P1;SDS_P2;PMS_P1;PMS_P2;Temp;Humidity;BMP_temperature;BMP_pressure;BME280_temperature;BME280_humidity;BME280_pressure;Samples;Min_cycle;Max_cycle;Signal;HPM_P1;HPM_P2
2021/12/21 00:00:33;;;;;;;34.80;17.40;;;-0.60;99.90;;;;;;5021204;28;20073;-60
2021/12/21 00:02:58;;;;;;;31.92;16.02;;;-0.60;99.90;;;;;;5013782;28;20045;-61
2021/12/21 00:05:28;;;;;;;30.02;15.13;;;-0.60;99.90;;;;;;5026016;28;20045;-61
2021/12/21 00:07:56;;;;;;;36.15;16.77;;;-0.60;99.90;;;;;;5020518;28;20054;-60
2021/12/21 00:10:27;;;;;;;35.50;17.65;;;-0.60;99.90;;;;;;5018042;28;20050;-61
2021/12/21 00:18:17;;;;;;;37.20;17.88;;;-0.60;99.90;;;;;;5032062;28;20116;-61
2021/12/21 00:21:03;;;;;;;41.85;17.85;;;-0.70;99.90;;;;;;5017698;28;20053;-60
2021/12/21 00:26:11;;;;;;;39.55;17.50;;;-0.70;99.90;;;;;;5045275;28;20046;-60
2021/12/21 00:28:47;;;;;;;40.08;18.85;;;-0.70;99.90;;;;;;5043801;28;20053;-61
2021/12/21 00:31:13;;;;;;;44.72;19.40;;;-0.70;99.90;;;;;;5014975;28;20088;-60
2021/12/21 00:33:41;;;;;;;38.53;17.70;;;-0.70;99.90;;;;;;5039670;28;20038;-61
2021/12/21 00:36:08;;;;;;;38.65;18.13;;;-0.70;99.90;;;;;;5043600;28;20069;-60
2021/12/21 00:38:34;;;;;;;38.05;17.70;;;-0.70;99.90;;;;;;5060101;28;20398;-60
2021/12/21 00:41:00;;;;;;;48.83;17.83;;;-0.70;99.90;;;;;;5038701;28;20477;-60
2021/12/21 00:43:26;;;;;;;39.95;18.45;;;-0.70;99.90;;;;;;5052364;28;20063;-60
2021/12/21 00:45:52;;;;;;;38.90;17.60;;;-0.80;99.90;;;;;;5043285;28;20060;-60
2021/12/21 00:48:18;;;;;;;39.00;18.03;;;-0.80;99.90;;;;;;5026621;28;20053;-60
2021/12/21 00:50:45;;;;;;;50.20;19.70;;;-0.80;99.90;;;;;;5044589;28;20084;-60
2021/12/21 00:53:12;;;;;;;42.45;18.15;;;-0.80;99.90;;;;;;5035718;28;20041;-60
2021/12/21 00:55:38;;;;;;;45.60;18.38;;;-0.80;99.90;;;;;;5043116;28;20044;-60
2021/12/21 00:58:03;;;;;;;40.45;18.98;;;-0.80;99.90;;;;;;5043265;28;20132;-60
2021/12/21 01:00:29;;;;;;;39.87;18.47;;;-0.80;99.90;;;;;;5044574;28;20068;-61
2021/12/21 01:02:58;;;;;;;43.35;18.98;;;-0.80;99.90;;;;;;5035908;28;20133;-61
2021/12/21 01:05:35;;;;;;;44.88;19.33;;;-0.80;99.90;;;;;;5043091;28;20054;-60
2021/12/21 01:08:02;;;;;;;43.83;19.65;;;-0.80;99.90;;;;;;5037633;28;20050;-61
2021/12/21 01:10:49;;;;;;;43.70;18.77;;;-0.80;99.90;;;;;;5043092;28;20084;-61
2021/12/21 01:13:32;;;;;;;;;;;-0.80;99.90;;;;;;5037994;28;20056;-61
2021/12/21 01:16:05;;;;;;;48.72;19.50;;;-0.90;99.90;;;;;;5038082;28;19921;-61
2021/12/21 01:18:37;;;;;;;45.28;19.67;;;-0.90;99.90;;;;;;5044077;28;20053;-60
2021/12/21 01:21:10;;;;;;;42.75;18.52;;;-0.90;99.90;;;;;;5044372;28;20038;-60
2021/12/21 01:28:59;;;;;;;44.38;20.00;;;-0.90;99.90;;;;;;5018720;28;20053;-60
2021/12/21 01:40:13;;;;;;;46.03;19.05;;;-0.90;99.90;;;;;;5019952;28;20224;-60
2021/12/21 01:43:04;;;;;;;45.25;20.25;;;-1.00;99.90;;;;;;5021961;28;20053;-60
2021/12/21 01:51:00;;;;;;;42.50;18.55;;;-1.00;99.90;;;;;;5005157;28;20049;-60
2021/12/21 01:53:25;;;;;;;42.78;17.38;;;-1.00;99.90;;;;;;5020913;28;20067;-60
2021/12/21 01:55:51;;;;;;;37.70;17.80;;;-1.00;99.90;;;;;;5021423;28;20077;-60
2021/12/21 01:58:17;;;;;;;41.10;18.80;;;-1.00;99.90;;;;;;5003751;28;20049;-60
2021/12/21 02:00:43;;;;;;;35.37;17.33;;;-1.00;99.90;;;;;;5004573;28;20465;-60
2021/12/21 02:03:09;;;;;;;36.63;18.00;;;-1.10;99.90;;;;;;5020405;28;20125;-60
2021/12/21 02:05:36;;;;;;;36.72;17.33;;;-1.00;99.90;;;;;;5005048;28;20468;-60
2021/12/21 02:08:03;;;;;;;38.30;17.00;;;-1.00;99.90;;;;;;5016177;28;20118;-60
2021/12/21 02:10:28;;;;;;;38.28;17.58;;;-1.10;99.90;;;;;;5005122;28;20069;-60
2021/12/21 02:12:54;;;;;;;34.97;16.43;;;-1.10;99.90;;;;;;5021004;28;20049;-60
2021/12/21 02:15:24;;;;;;;32.97;16.73;;;-1.10;99.90;;;;;;5005693;28;20057;-60
2021/12/21 02:20:42;;;;;;;34.10;16.48;;;-1.10;99.90;;;;;;5017168;28;20042;-60
2021/12/21 02:23:13;;;;;;;36.83;16.50;;;-1.10;99.90;;;;;;5007394;28;20086;-60
2021/12/21 02:25:59;;;;;;;35.53;16.30;;;-1.10;99.90;;;;;;5043823;28;20079;-60
2021/12/21 02:28:58;;;;;;;36.10;16.05;;;-1.10;99.90;;;;;;5062401;28;20045;-61
2021/12/21 02:31:12;;;;;;;32.05;15.90;;;-1.20;99.90;;;;;;5043150;28;20052;-60
2021/12/21 02:33:37;;;;;;;34.40;16.42;;;-1.10;99.90;;;;;;5044931;28;20056;-61
2021/12/21 02:36:03;;;;;;;35.50;16.23;;;-1.20;99.90;;;;;;5059509;28;20045;-60
2021/12/21 02:38:34;;;;;;;30.55;15.27;;;-1.20;99.90;;;;;;5062413;28;20530;-60
2021/12/21 02:41:00;;;;;;;35.85;15.93;;;-1.20;99.90;;;;;;5035443;28;20400;-60
2021/12/21 02:43:28;;;;;;;33.07;15.57;;;-1.20;99.90;;;;;;5040226;28;20045;-60
2021/12/21 02:45:54;;;;;;;37.88;17.38;;;-1.20;99.90;;;;;;5043885;28;20283;-60
2021/12/21 02:48:20;;;;;;;37.13;15.20;;;-1.20;99.90;;;;;;5062629;28;20111;-60
2021/12/21 02:50:46;;;;;;;35.70;15.03;;;-1.20;99.90;;;;;;5041944;28;20090;-60
2021/12/21 02:53:11;;;;;;;30.63;15.55;;;-1.20;99.90;;;;;;5027780;28;20091;-61
2021/12/21 02:55:38;;;;;;;34.83;15.30;;;-1.20;99.90;;;;;;5063129;28;20041;-60
2021/12/21 02:58:04;;;;;;;33.15;15.60;;;-1.20;99.90;;;;;;5062212;28;20063;-60
2021/12/21 03:00:31;;;;;;;32.20;14.40;;;-1.20;99.90;;;;;;5044787;28;20064;-60
2021/12/21 03:03:02;;;;;;;28.58;13.98;;;-1.30;99.90;;;;;;5043715;28;20067;-60
2021/12/21 03:05:28;;;;;;;35.95;15.25;;;-1.30;99.90;;;;;;5044746;28;20048;-60
2021/12/21 03:08:10;;;;;;;30.38;13.63;;;-1.30;99.90;;;;;;5062553;28;20152;-60
2021/12/21 03:10:36;;;;;;;33.03;14.07;;;-1.30;99.90;;;;;;5044483;28;20048;-60
2021/12/21 03:15:47;;;;;;;30.90;12.85;;;-1.30;99.90;;;;;;5066505;28;20408;-60
2021/12/21 03:18:13;;;;;;;29.40;13.07;;;-1.30;99.90;;;;;;5048405;28;20045;-60
2021/12/21 03:20:39;;;;;;;21.65;13.15;;;-1.30;99.90;;;;;;5030877;28;20111;-61
2021/12/21 03:23:05;;;;;;;29.70;14.23;;;-1.30;99.90;;;;;;5046616;28;20045;-61
2021/12/21 03:25:30;;;;;;;25.13;13.77;;;-1.30;99.90;;;;;;5066300;28;20105;-60
2021/12/21 03:27:56;;;;;;;30.53;12.57;;;-1.30;99.90;;;;;;5066147;28;20064;-60
2021/12/21 03:30:21;;;;;;;29.63;13.30;;;-1.30;99.90;;;;;;5066184;28;20101;-60
2021/12/21 03:32:47;;;;;;;28.30;13.33;;;-1.40;99.90;;;;;;5048091;28;20041;-61
2021/12/21 03:35:13;;;;;;;29.63;12.97;;;-1.40;99.90;;;;;;5061913;28;20302;-60
2021/12/21 03:37:39;;;;;;;21.67;12.32;;;-1.40;99.90;;;;;;5066057;28;20104;-60
2021/12/21 03:40:06;;;;;;;29.90;13.80;;;-1.40;99.90;;;;;;5065922;28;20054;-60
2021/12/21 03:42:31;;;;;;;;;;;-1.40;99.90;;;;;;5048722;28;20327;-60
2021/12/21 03:44:57;;;;;;;25.13;11.80;;;-1.40;99.90;;;;;;5032401;28;19921;-61
2021/12/21 03:47:23;;;;;;;29.13;12.43;;;-1.40;99.90;;;;;;5066427;28;20048;-60
2021/12/21 03:49:59;;;;;;;23.08;11.80;;;-1.40;99.90;;;;;;5047684;28;20049;-60
2021/12/21 03:52:27;;;;;;;27.13;12.50;;;-1.40;99.90;;;;;;5065934;28;20419;-61
2021/12/21 03:55:00;;;;;;;21.13;11.07;;;-1.50;99.90;;;;;;5043047;28;20073;-60
2021/12/21 03:57:26;;;;;;;23.75;12.27;;;-1.40;99.90;;;;;;5045989;28;20116;-60
2021/12/21 03:59:53;;;;;;;26.48;12.38;;;-1.40;99.90;;;;;;5037774;28;20063;-60
2021/12/21 04:02:19;;;;;;;25.45;12.18;;;-1.50;99.90;;;;;;5047576;28;20063;-60
2021/12/21 04:04:46;;;;;;;24.63;12.25;;;-1.40;99.90;;;;;;5065778;28;20037;-60
2021/12/21 04:07:11;;;;;;;28.25;12.75;;;-1.50;99.90;;;;;;5047088;28;20045;-61
2021/12/21 04:09:37;;;;;;;24.97;12.23;;;-1.50;99.90;;;;;;5055426;28;20099;-61
2021/12/21 04:12:03;;;;;;;20.37;11.03;;;-1.50;99.90;;;;;;5047716;28;20072;-60
2021/12/21 04:14:30;;;;;;;22.67;11.07;;;-1.50;99.90;;;;;;5065341;28;20041;-60
2021/12/21 04:16:57;;;;;;;25.23;11.73;;;-1.50;99.90;;;;;;5036264;28;20057;-60
2021/12/21 04:19:22;;;;;;;24.67;12.10;;;-1.50;99.90;;;;;;5052269;28;20129;-61
2021/12/21 04:21:48;;;;;;;22.23;11.13;;;-1.50;99.90;;;;;;5046706;28;20033;-61
2021/12/21 04:24:14;;;;;;;20.17;10.80;;;-1.50;99.90;;;;;;5043563;28;20296;-60
2021/12/21 04:26:40;;;;;;;22.60;10.48;;;-1.50;99.90;;;;;;5039604;28;20076;-60
2021/12/21 04:29:06;;;;;;;24.37;11.30;;;-1.50;99.90;;;;;;5029717;28;20049;-60
2021/12/21 04:31:31;;;;;;;20.73;11.10;;;-1.60;99.90;;;;;;5045076;28;20037;-60
2021/12/21 04:33:58;;;;;;;20.02;10.48;;;-1.50;99.90;;;;;;5043212;28;20049;-60
2021/12/21 04:36:25;;;;;;;20.40;10.82;;;-1.60;99.90;;;;;;5043725;28;20097;-60
2021/12/21 04:38:52;;;;;;;24.13;12.35;;;-1.60;99.90;;;;;;5045085;28;20064;-60
2021/12/21 04:41:26;;;;;;;24.25;11.02;;;-1.50;99.90;;;;;;5043429;28;20406;-60
2021/12/21 04:43:54;;;;;;;20.27;10.45;;;-1.50;99.90;;;;;;5040677;28;20061;-60
2021/12/21 04:46:20;;;;;;;21.65;11.20;;;-1.60;99.90;;;;;;5060175;28;20060;-60
2021/12/21 04:48:46;;;;;;;23.85;11.23;;;-1.50;99.90;;;;;;5035060;28;20041;-60
2021/12/21 04:51:12;;;;;;;24.10;11.48;;;-1.60;99.90;;;;;;5023386;28;20038;-60
2021/12/21 04:53:38;;;;;;;29.23;12.20;;;-1.60;99.90;;;;;;5039479;28;20058;-60
2021/12/21 04:56:04;;;;;;;24.00;11.70;;;-1.60;99.90;;;;;;5044435;28;20045;-60
2021/12/21 04:58:30;;;;;;;23.13;10.85;;;-1.60;99.90;;;;;;5042549;28;20890;-61
2021/12/21 05:00:56;;;;;;;17.38;10.18;;;-1.60;99.90;;;;;;5042590;28;20104;-60
2021/12/21 05:03:22;;;;;;;24.27;10.90;;;-1.50;99.90;;;;;;5042675;28;20053;-60
2021/12/21 05:05:47;;;;;;;25.13;11.90;;;-1.60;99.90;;;;;;5042738;28;20054;-60
2021/12/21 05:08:23;;;;;;;20.90;9.97;;;-1.60;99.90;;;;;;5042356;28;20041;-61
2021/12/21 05:11:00;;;;;;;18.85;10.40;;;-1.60;99.90;;;;;;5043443;28;20064;-61
2021/12/21 05:13:32;;;;;;;23.58;11.20;;;-1.60;99.90;;;;;;5042334;28;20063;-60
2021/12/21 05:15:59;;;;;;;23.08;11.20;;;-1.60;99.90;;;;;;5042686;28;20045;-60
2021/12/21 05:18:25;;;;;;;20.98;11.13;;;-1.60;99.90;;;;;;5043897;28;20088;-60
2021/12/21 05:20:51;;;;;;;19.95;10.18;;;-1.60;99.90;;;;;;5040856;28;20118;-60
2021/12/21 05:23:18;;;;;;;18.58;10.02;;;-1.60;99.90;;;;;;5045590;28;20071;-61
2021/12/21 05:25:44;;;;;;;22.92;10.27;;;-1.60;99.90;;;;;;5045720;28;20057;-61
2021/12/21 05:28:12;;;;;;;16.73;10.52;;;-1.60;99.90;;;;;;5045310;28;20055;-60
2021/12/21 05:30:38;;;;;;;21.85;10.80;;;-1.60;99.90;;;;;;5041342;28;20109;-60
2021/12/21 05:33:04;;;;;;;22.80;10.18;;;-1.60;99.90;;;;;;5031764;28;20063;-61
2021/12/21 05:35:31;;;;;;;22.70;10.68;;;-1.60;99.90;;;;;;5059787;28;20113;-60
2021/12/21 05:38:01;;;;;;;18.40;10.27;;;-1.70;99.90;;;;;;5045207;28;20040;-60
2021/12/21 05:40:34;;;;;;;21.75;10.77;;;-1.60;99.90;;;;;;5063290;28;20064;-60
2021/12/21 05:43:01;;;;;;;22.85;10.88;;;-1.60;99.90;;;;;;5032323;28;20059;-60
2021/12/21 05:45:27;;;;;;;19.40;10.93;;;-1.60;99.90;;;;;;5059446;28;20075;-60
2021/12/21 05:47:53;;;;;;;21.10;9.88;;;-1.60;99.90;;;;;;5045067;28;20045;-60
2021/12/21 05:50:19;;;;;;;17.17;9.50;;;-1.70;99.90;;;;;;5045193;28;20064;-61
2021/12/21 05:52:46;;;;;;;;;;;-1.70;99.90;;;;;;5034607;28;20053;-60
2021/12/21 05:55:16;;;;;;;20.33;9.70;;;-1.70;99.90;;;;;;5043205;28;19921;-61
2021/12/21 05:57:41;;;;;;;19.75;10.32;;;-1.70;99.90;;;;;;5053710;28;20052;-60
2021/12/21 06:00:10;;;;;;;18.50;9.57;;;-1.70;99.90;;;;;;5045201;28;20096;-60
2021/12/21 06:02:36;;;;;;;21.73;10.55;;;-1.70;99.90;;;;;;5058840;28;20068;-61
2021/12/21 06:05:04;;;;;;;22.05;10.07;;;-1.70;99.90;;;;;;5034258;28;20045;-61
2021/12/21 06:07:36;;;;;;;21.02;11.13;;;-1.70;99.90;;;;;;5062901;28;20049;-60
2021/12/21 06:10:11;;;;;;;17.02;9.80;;;-1.70;99.90;;;;;;5044598;28;20477;-60
2021/12/21 06:26:16;;;;;;;21.27;11.35;;;-1.70;99.90;;;;;;5043213;28;20057;-60
2021/12/21 06:28:44;;;;;;;18.92;10.20;;;-1.70;99.90;;;;;;5041283;28;20369;-61
2021/12/21 06:31:10;;;;;;;17.52;9.88;;;-1.70;99.90;;;;;;5044270;28;20053;-60
2021/12/21 06:33:36;;;;;;;20.80;9.65;;;-1.70;99.90;;;;;;5044076;28;20102;-68
2021/12/21 06:36:02;;;;;;;17.75;9.35;;;-1.70;99.90;;;;;;5026776;28;20419;-59
2021/12/21 06:38:28;;;;;;;19.13;9.98;;;-1.70;99.90;;;;;;5062240;28;20056;-61
2021/12/21 06:40:54;;;;;;;19.25;9.43;;;-1.70;99.90;;;;;;5062881;28;20413;-61
2021/12/21 06:43:20;;;;;;;17.88;9.85;;;-1.70;99.90;;;;;;5062279;28;20052;-61
2021/12/21 06:45:57;;;;;;;16.10;9.57;;;-1.70;99.90;;;;;;5035740;28;20068;-61
2021/12/21 06:51:28;;;;;;;20.75;9.10;;;-1.70;99.90;;;;;;5048563;28;20057;-62
2021/12/21 06:53:56;;;;;;;16.45;8.73;;;-1.70;99.90;;;;;;5047306;28;20065;-61
2021/12/21 06:56:23;;;;;;;21.85;9.05;;;-1.70;99.90;;;;;;5023505;28;20089;-61
2021/12/21 06:58:49;;;;;;;17.70;9.13;;;-1.70;99.90;;;;;;5057356;28;20231;-62
2021/12/21 07:01:15;;;;;;;15.32;8.45;;;-1.70;99.90;;;;;;5028627;28;20050;-60
2021/12/21 07:03:43;;;;;;;15.40;8.52;;;-1.80;99.90;;;;;;5064254;28;20062;-61
2021/12/21 07:06:10;;;;;;;19.40;8.77;;;-1.70;99.90;;;;;;5065430;28;20069;-64
2021/12/21 07:08:46;;;;;;;15.38;8.63;;;-1.80;99.90;;;;;;5064738;28;20510;-63
2021/12/21 07:19:32;;;;;;;16.30;8.30;;;-1.70;99.90;;;;;;5024011;28;20077;-61
2021/12/21 07:21:58;;;;;;;13.73;7.53;;;-1.80;99.90;;;;;;5023754;28;20409;-61
2021/12/21 07:24:25;;;;;;;16.83;8.82;;;-1.80;99.90;;;;;;5008201;28;20177;-62
2021/12/21 07:26:51;;;;;;;;;;;-1.70;99.90;;;;;;5025029;28;20147;-62
2021/12/21 07:29:17;;;;;;;14.80;7.47;;;-1.80;99.90;;;;;;5042075;28;19921;-62
2021/12/21 07:31:43;;;;;;;13.25;7.32;;;-1.80;99.90;;;;;;5018012;28;20117;-63
2021/12/21 07:34:09;;;;;;;16.42;9.20;;;-1.80;99.90;;;;;;5007638;28;20050;-62
2021/12/21 07:36:35;;;;;;;18.70;8.65;;;-1.80;99.90;;;;;;5023542;28;20062;-63
2021/12/21 07:39:03;;;;;;;14.20;7.73;;;-1.80;99.90;;;;;;5026668;28;20111;-64
2021/12/21 07:41:29;;;;;;;15.70;8.65;;;-1.80;99.90;;;;;;5042995;28;20057;-63
2021/12/21 07:43:55;;;;;;;15.70;7.13;;;-1.80;99.90;;;;;;5014471;28;20065;-63
2021/12/21 07:46:21;;;;;;;15.27;8.55;;;-1.80;99.90;;;;;;5028591;28;20041;-64
2021/12/21 07:48:47;;;;;;;13.03;7.70;;;-1.80;99.90;;;;;;5026258;28;20060;-64
2021/12/21 07:51:13;;;;;;;14.35;7.78;;;-1.80;99.90;;;;;;5035262;28;20292;-63
2021/12/21 07:53:39;;;;;;;16.02;7.70;;;-1.80;99.90;;;;;;5035427;28;20033;-64
2021/12/21 07:56:05;;;;;;;17.65;8.60;;;-1.80;99.90;;;;;;5042378;28;20064;-67
2021/12/21 07:58:32;;;;;;;17.85;8.60;;;-1.80;99.90;;;;;;5046913;28;20052;-67
2021/12/21 08:01:00;;;;;;;17.25;8.25;;;-1.80;99.90;;;;;;5045540;28;20086;-66
2021/12/21 08:03:27;;;;;;;17.35;8.07;;;-1.80;99.90;;;;;;5047303;28;20048;-65
2021/12/21 08:05:55;;;;;;;14.82;7.75;;;-1.80;99.90;;;;;;5060051;28;20033;-66
2021/12/21 08:08:23;;;;;;;15.43;7.82;;;-1.80;99.90;;;;;;5063264;28;20164;-66
2021/12/21 08:13:42;;;;;;;18.77;8.15;;;-1.80;99.90;;;;;;4978347;28;20120;-65
2021/12/21 08:16:08;;;;;;;12.57;7.63;;;-1.80;99.90;;;;;;4985659;28;20110;-64
2021/12/21 08:18:34;;;;;;;20.08;8.27;;;-1.70;99.90;;;;;;5001397;28;20065;-65
2021/12/21 08:20:59;;;;;;;14.73;7.63;;;-1.70;99.90;;;;;;5003105;28;20061;-62
2021/12/21 08:23:26;;;;;;;13.50;8.23;;;-1.70;99.90;;;;;;5017793;28;20062;-64
2021/12/21 08:25:54;;;;;;;14.40;7.68;;;-1.70;99.90;;;;;;4986681;28;20058;-61
2021/12/21 08:28:19;;;;;;;21.27;8.10;;;-1.70;99.90;;;;;;5002711;28;20049;-64
2021/12/21 08:30:45;;;;;;;14.90;8.30;;;-1.70;99.90;;;;;;4986790;28;20058;-61
2021/12/21 08:33:11;;;;;;;16.00;7.40;;;-1.70;99.90;;;;;;4999617;28;20106;-63
2021/12/21 08:35:36;;;;;;;18.00;8.77;;;-1.70;99.90;;;;;;5002338;28;20062;-63
2021/12/21 08:38:07;;;;;;;15.07;8.30;;;-1.60;99.90;;;;;;5001513;28;20082;-62
2021/12/21 08:40:42;;;;;;;25.25;8.63;;;-1.60;99.90;;;;;;5002770;28;20065;-62
2021/12/21 08:43:15;;;;;;;15.00;8.15;;;-1.60;99.90;;;;;;5002314;28;20050;-64
2021/12/21 08:45:42;;;;;;;21.50;8.98;;;-1.60;99.90;;;;;;4981895;28;20058;-63
2021/12/21 08:48:09;;;;;;;18.40;8.68;;;-1.60;99.90;;;;;;5002494;28;20093;-64
2021/12/21 08:50:35;;;;;;;20.40;9.25;;;-1.50;99.90;;;;;;5022532;28;20069;-63
2021/12/21 08:53:02;;;;;;;17.17;8.88;;;-1.50;99.90;;;;;;5044371;28;20045;-63
2021/12/21 08:55:28;;;;;;;17.23;7.90;;;-1.50;99.90;;;;;;5032903;28;20064;-62
2021/12/21 08:57:54;;;;;;;24.17;9.18;;;-1.40;99.90;;;;;;5044291;28;20092;-61
2021/12/21 09:00:20;;;;;;;20.48;10.18;;;-1.40;99.90;;;;;;5044450;28;20072;-62
2021/12/21 09:02:45;;;;;;;25.80;9.35;;;-1.40;99.90;;;;;;5026277;28;20092;-62
2021/12/21 09:05:15;;;;;;;21.43;9.57;;;-1.40;99.90;;;;;;5045533;28;20076;-62
2021/12/21 09:07:43;;;;;;;20.08;9.52;;;-1.30;99.90;;;;;;5026243;28;20055;-62
2021/12/21 09:10:10;;;;;;;17.42;9.38;;;-1.30;99.90;;;;;;5044061;28;20393;-62
2021/12/21 09:12:36;;;;;;;16.77;9.32;;;-1.30;99.90;;;;;;5046121;28;20102;-62
2021/12/21 09:15:02;;;;;;;20.20;8.97;;;-1.30;99.90;;;;;;5045352;28;20095;-61
2021/12/21 09:17:28;;;;;;;16.85;8.68;;;-1.30;99.90;;;;;;5046945;28;20528;-61
2021/12/21 09:19:55;;;;;;;21.05;8.88;;;-1.20;99.90;;;;;;5045762;28;20053;-61
2021/12/21 09:22:21;;;;;;;19.45;9.85;;;-1.20;99.90;;;;;;5045399;28;20053;-60
2021/12/21 09:24:46;;;;;;;18.90;9.33;;;-1.20;99.90;;;;;;5063271;28;20052;-60
2021/12/21 09:27:12;;;;;;;16.37;9.60;;;-1.10;99.90;;;;;;5045450;28;20072;-59
2021/12/21 09:29:38;;;;;;;18.15;9.27;;;-1.10;99.90;;;;;;5045533;28;20112;-59
2021/12/21 09:32:06;;;;;;;20.70;9.25;;;-1.00;99.90;;;;;;5045578;28;20080;-60
2021/12/21 09:34:32;;;;;;;13.85;8.40;;;-1.00;99.90;;;;;;5063338;28;20045;-59
2021/12/21 09:36:58;;;;;;;14.25;8.60;;;-0.90;99.90;;;;;;5042736;28;20045;-60
2021/12/21 09:39:23;;;;;;;17.67;7.90;;;-0.90;99.90;;;;;;5044326;28;20045;-60
2021/12/21 09:41:49;;;;;;;26.30;9.10;;;-0.80;99.90;;;;;;5045239;28;20045;-61
2021/12/21 09:44:15;;;;;;;28.83;9.47;;;-0.80;99.90;;;;;;5059953;28;20064;-61
2021/12/21 09:46:41;;;;;;;22.90;8.57;;;-0.70;99.90;;;;;;5063263;28;20097;-60
2021/12/21 09:49:07;;;;;;;24.13;9.23;;;-0.70;99.90;;;;;;5030596;28;20046;-60
2021/12/21 09:51:32;;;;;;;18.07;7.67;;;-0.60;99.90;;;;;;5042108;28;20076;-61
2021/12/21 09:53:59;;;;;;;16.03;8.87;;;-0.60;99.90;;;;;;5061017;28;20044;-61
2021/12/21 09:56:25;;;;;;;18.33;8.35;;;-0.50;99.90;;;;;;5044400;28;20044;-62
2021/12/21 09:58:50;;;;;;;15.05;7.60;;;-0.50;99.90;;;;;;5059882;28;20056;-61
2021/12/21 10:01:28;;;;;;;16.93;9.30;;;-0.40;99.90;;;;;;5026754;28;20060;-61
2021/12/21 10:03:56;;;;;;;20.10;8.43;;;-0.40;99.90;;;;;;5054068;28;20045;-61
2021/12/21 10:06:22;;;;;;;19.47;7.77;;;-0.30;99.90;;;;;;5062968;28;21942;-62
2021/12/21 10:08:48;;;;;;;16.30;7.93;;;-0.30;99.90;;;;;;5061937;28;20033;-61
2021/12/21 10:11:21;;;;;;;14.05;7.72;;;-0.30;99.90;;;;;;5037310;28;20604;-60
2021/12/21 10:13:48;;;;;;;19.58;8.30;;;-0.20;99.90;;;;;;5044748;28;20060;-61
2021/12/21 10:16:21;;;;;;;17.70;7.57;;;-0.20;99.90;;;;;;5062780;28;20041;-61
2021/12/21 10:18:48;;;;;;;16.77;8.15;;;-0.10;99.90;;;;;;5044499;28;20121;-61
2021/12/21 10:21:15;;;;;;;20.60;8.13;;;-0.10;99.90;;;;;;5033478;28;20056;-61
2021/12/21 10:23:44;;;;;;;18.55;8.30;;;0.00;99.90;;;;;;5041812;28;20053;-61
2021/12/21 10:26:22;;;;;;;16.08;8.52;;;0.00;99.90;;;;;;5010248;28;20129;-59
2021/12/21 10:28:56;;;;;;;17.23;7.95;;;0.10;99.90;;;;;;5044527;28;20049;-61
2021/12/21 10:31:28;;;;;;;17.55;8.18;;;0.10;99.90;;;;;;5026422;28;20053;-61
2021/12/21 10:33:57;;;;;;;20.23;8.68;;;0.10;99.90;;;;;;5061969;28;20104;-60
2021/12/21 10:36:26;;;;;;;14.13;8.35;;;0.20;99.90;;;;;;5013137;28;20057;-64
2021/12/21 10:38:57;;;;;;;19.83;9.07;;;0.20;99.90;;;;;;5020163;28;20116;-62
2021/12/21 10:41:39;;;;;;;17.67;9.45;;;0.30;99.90;;;;;;5025508;28;20068;-62
2021/12/21 10:44:07;;;;;;;22.20;9.00;;;0.30;99.90;;;;;;5066753;28;20040;-62
2021/12/21 10:46:36;;;;;;;19.27;9.07;;;0.40;99.90;;;;;;5062063;28;20036;-62
2021/12/21 10:49:09;;;;;;;15.88;7.85;;;0.40;99.90;;;;;;5043873;28;20080;-62
2021/12/21 10:51:36;;;;;;;12.32;7.03;;;0.40;99.90;;;;;;5061413;28;20041;-63
2021/12/21 10:54:02;;;;;;;14.18;7.43;;;0.50;99.90;;;;;;5024866;28;20045;-62
2021/12/21 10:56:27;;;;;;;24.20;6.80;;;0.50;99.90;;;;;;5028352;28;20041;-61
2021/12/21 10:58:53;;;;;;;13.83;6.47;;;0.50;99.90;;;;;;5010627;28;20049;-62
2021/12/21 11:01:26;;;;;;;14.77;6.27;;;0.50;99.90;;;;;;5062270;28;20044;-62
2021/12/21 11:03:56;;;;;;;16.42;7.47;;;0.60;99.90;;;;;;5015743;28;20062;-62
2021/12/21 11:06:28;;;;;;;14.13;5.80;;;0.60;99.90;;;;;;5044325;28;20056;-62
2021/12/21 11:08:56;;;;;;;12.40;6.18;;;0.70;99.90;;;;;;5042944;28;20088;-62
2021/12/21 11:11:34;;;;;;;13.02;5.68;;;0.70;99.90;;;;;;5044017;28;20085;-62
2021/12/21 11:14:12;;;;;;;13.98;6.32;;;0.70;99.90;;;;;;5037122;28;20102;-62
2021/12/21 11:16:45;;;;;;;12.02;5.25;;;0.80;99.90;;;;;;5028580;28;20184;-62
2021/12/21 11:19:25;;;;;;;15.00;5.93;;;0.80;99.90;;;;;;5043097;28;20044;-62
2021/12/21 11:21:52;;;;;;;13.40;6.22;;;0.90;99.90;;;;;;5061469;28;20041;-62
2021/12/21 11:24:19;;;;;;;12.45;5.68;;;0.90;99.90;;;;;;5055384;28;20077;-62
2021/12/21 11:26:46;;;;;;;;;;;0.90;99.90;;;;;;5031701;28;20060;-62
2021/12/21 11:29:15;;;;;;;9.15;5.80;;;1.00;99.90;;;;;;5020803;28;19917;-62
2021/12/21 11:31:44;;;;;;;15.07;6.25;;;1.20;99.90;;;;;;5023697;28;20492;-62
2021/12/21 11:34:14;;;;;;;15.75;6.13;;;1.20;99.90;;;;;;5012079;28;20053;-62
2021/12/21 11:39:35;;;;;;;14.85;6.35;;;1.20;99.90;;;;;;5061964;28;20041;-61
2021/12/21 11:42:04;;;;;;;12.07;6.70;;;1.20;99.90;;;;;;5059200;28;20162;-63
2021/12/21 11:45:09;;;;;;;15.93;6.18;;;1.20;99.90;;;;;;5058925;28;20086;-63
2021/12/21 11:47:46;;;;;;;16.02;5.60;;;1.20;99.90;;;;;;5060390;28;20041;-64
2021/12/21 11:50:12;;;;;;;;;;;1.20;99.90;;;;;;5065580;28;20041;-70
2021/12/21 11:52:53;;;;;;;11.68;5.13;;;1.20;99.90;;;;;;5046801;28;19931;-63
2021/12/21 11:55:22;;;;;;;12.10;5.38;;;1.20;99.90;;;;;;5046526;28;20075;-60
2021/12/21 11:57:57;;;;;;;15.13;5.45;;;1.20;99.90;;;;;;5044574;28;20064;-63
2021/12/21 12:00:29;;;;;;;9.13;5.15;;;1.30;99.90;;;;;;5058482;28;20133;-60
2021/12/21 12:03:07;;;;;;;12.73;5.78;;;1.30;99.90;;;;;;5064936;28;20091;-62
2021/12/21 12:05:34;;;;;;;12.50;5.50;;;1.40;99.90;;;;;;5046053;28;20083;-64
2021/12/21 12:08:11;;;;;;;14.68;5.85;;;1.40;99.90;;;;;;5031294;28;20053;-65
2021/12/21 12:10:57;;;;;;;15.13;5.18;;;1.40;99.90;;;;;;5059093;28;20091;-63
2021/12/21 12:13:37;;;;;;;8.27;4.93;;;1.40;99.90;;;;;;5046180;28;20045;-62
2021/12/21 12:16:15;;;;;;;12.63;4.93;;;1.50;99.90;;;;;;5070675;28;20090;-63
2021/12/21 12:18:47;;;;;;;10.98;5.13;;;1.60;99.90;;;;;;5049486;28;20156;-66
2021/12/21 12:21:16;;;;;;;8.18;4.50;;;1.60;99.90;;;;;;5010430;28;20103;-65
2021/12/21 12:24:01;;;;;;;10.32;5.45;;;1.60;99.90;;;;;;5045098;28;20061;-64
2021/12/21 12:26:30;;;;;;;11.30;5.68;;;1.70;99.90;;;;;;5064713;28;20052;-68
2021/12/21 12:29:10;;;;;;;10.23;5.40;;;1.60;99.90;;;;;;5033739;28;20041;-64
2021/12/21 12:31:39;;;;;;;10.80;4.90;;;1.60;99.90;;;;;;5060695;28;20075;-67
2021/12/21 12:34:07;;;;;;;12.90;5.38;;;1.70;99.90;;;;;;5046228;28;20187;-69
2021/12/21 12:36:47;;;;;;;12.63;4.80;;;1.70;99.90;;;;;;5045883;28;20071;-67
2021/12/21 12:39:28;;;;;;;14.55;5.53;;;1.80;99.90;;;;;;5054544;28;20103;-63
2021/12/21 12:41:59;;;;;;;9.45;4.65;;;1.80;99.90;;;;;;5044594;28;20041;-65
2021/12/21 12:44:25;;;;;;;9.40;4.93;;;1.80;99.90;;;;;;5061074;28;20503;-64
2021/12/21 12:46:53;;;;;;;11.13;5.35;;;1.80;99.90;;;;;;5045034;28;20064;-64
2021/12/21 12:49:27;;;;;;;12.50;5.00;;;1.80;99.90;;;;;;5064186;28;20100;-64
2021/12/21 12:52:14;;;;;;;11.90;5.13;;;1.80;99.90;;;;;;5073437;28;20067;-64
2021/12/21 12:54:52;;;;;;;15.32;4.78;;;1.80;99.90;;;;;;5038677;28;20048;-64
2021/12/21 12:57:37;;;;;;;12.63;5.88;;;1.80;99.90;;;;;;5063676;28;20048;-60
2021/12/21 13:00:21;;;;;;;18.08;6.10;;;1.80;99.90;;;;;;5045704;28;20057;-64
2021/12/21 13:03:02;;;;;;;10.85;5.43;;;1.80;99.90;;;;;;5033755;28;20052;-65
2021/12/21 13:05:37;;;;;;;10.80;4.97;;;1.80;99.90;;;;;;5041384;28;20131;-65
2021/12/21 13:08:15;;;;;;;12.85;4.93;;;1.80;99.90;;;;;;5045110;28;20057;-65
2021/12/21 13:10:46;;;;;;;9.52;5.07;;;1.90;99.90;;;;;;5045353;28;20057;-62
2021/12/21 13:13:13;;;;;;;11.40;5.03;;;1.90;99.90;;;;;;5044708;28;20045;-60
2021/12/21 13:15:41;;;;;;;;;;;1.80;99.90;;;;;;5045441;28;20064;-63
2021/12/21 13:18:09;;;;;;;12.38;5.43;;;1.80;99.90;;;;;;5044758;28;19924;-64
2021/12/21 13:20:36;;;;;;;7.95;4.85;;;1.80;99.90;;;;;;5045591;28;20067;-64
2021/12/21 13:23:29;;;;;;;8.82;4.63;;;1.80;99.90;;;;;;5062725;28;20036;-63
2021/12/21 13:25:59;;;;;;;9.15;4.57;;;1.70;99.90;;;;;;5000948;28;20069;-63
2021/12/21 13:28:25;;;;;;;11.50;5.43;;;1.70;99.90;;;;;;5018864;28;20073;-63
2021/12/21 13:30:54;;;;;;;14.48;5.40;;;1.70;99.90;;;;;;5020022;28;20093;-63
2021/12/21 13:33:27;;;;;;;15.25;5.20;;;1.60;99.90;;;;;;5021404;28;20050;-62
2021/12/21 13:35:55;;;;;;;11.27;4.93;;;1.60;99.90;;;;;;5019463;28;20160;-63
2021/12/21 13:38:24;;;;;;;13.95;4.53;;;1.60;99.90;;;;;;5020915;28;20054;-63
2021/12/21 13:41:13;;;;;;;12.27;4.65;;;1.60;99.90;;;;;;5020798;28;20042;-63
2021/12/21 13:43:51;;;;;;;14.13;4.68;;;1.60;99.90;;;;;;5017681;28;20481;-63
2021/12/21 13:46:17;;;;;;;7.88;4.15;;;1.60;99.90;;;;;;5004754;28;20054;-63
2021/12/21 13:48:53;;;;;;;8.23;3.92;;;1.60;99.90;;;;;;5036421;28;20052;-63
2021/12/21 13:51:20;;;;;;;12.02;4.40;;;1.60;99.90;;;;;;5019793;28;20179;-62